createdAt,value
2022-10-17T00:01:14.449Z,48.38
2022-10-17T00:03:42.664Z,47.15
2022-10-17T00:06:13.157Z,50.40
2022-10-17T00:08:43.037Z,49.42
2022-10-17T00:11:18.053Z,49.38
2022-10-17T00:13:48.256Z,50.40
2022-10-17T00:16:28.158Z,52.38
2022-10-17T00:18:57.361Z,48.78
2022-10-17T00:21:26.823Z,49.05
2022-10-17T00:24:00.095Z,48.10
2022-10-17T00:26:31.381Z,49.45
2022-10-17T00:28:59.687Z,48.42
2022-10-17T00:31:28.054Z,48.28
2022-10-17T00:33:56.923Z,48.28
2022-10-17T00:36:26.570Z,46.30
2022-10-17T00:38:58.928Z,49.60
2022-10-17T00:41:32.938Z,48.42
2022-10-17T00:44:24.041Z,47.35
2022-10-17T00:46:52.274Z,45.35
2022-10-17T00:49:26.410Z,47.22
2022-10-17T00:52:04.770Z,46.63
2022-10-17T00:54:39.730Z,45.50
2022-10-17T00:57:08.107Z,47.08
2022-10-17T00:59:39.700Z,46.25
2022-10-17T01:02:14.678Z,47.55
2022-10-17T01:04:47.235Z,47.75
2022-10-17T01:07:15.706Z,48.27
2022-10-17T01:09:46.400Z,47.10
2022-10-17T01:12:30.538Z,45.33
2022-10-17T01:15:19.362Z,46.67
2022-10-17T01:18:14.200Z,49.58
2022-10-17T01:21:03.017Z,46.25
2022-10-17T01:23:40.446Z,45.60
2022-10-17T01:26:23.058Z,46.00
2022-10-17T01:29:25.923Z,48.30
2022-10-17T01:32:08.826Z,47.65
2022-10-17T01:35:01.195Z,50.30
2022-10-17T01:37:37.919Z,47.38
2022-10-17T01:40:33.554Z,48.95
2022-10-17T01:43:15.146Z,49.47
2022-10-17T01:45:58.991Z,47.20
2022-10-17T01:48:37.033Z,45.92
2022-10-17T01:51:21.309Z,46.63
2022-10-17T01:53:56.855Z,45.80
2022-10-17T01:56:30.272Z,50.67
2022-10-17T01:59:25.719Z,47.53
2022-10-17T02:01:57.907Z,47.08
2022-10-17T02:04:27.808Z,47.50
2022-10-17T02:06:56.146Z,46.78
2022-10-17T02:09:27.022Z,48.58
2022-10-17T02:12:07.292Z,48.45
2022-10-17T02:14:54.529Z,48.22
2022-10-17T02:17:52.783Z,48.00
2022-10-17T02:20:31.898Z,49.22
2022-10-17T02:23:04.232Z,49.33
2022-10-17T02:26:06.944Z,49.55
2022-10-17T02:28:53.644Z,47.17
2022-10-17T02:31:54.574Z,47.63
2022-10-17T02:34:32.198Z,48.78
2022-10-17T02:37:05.119Z,48.65
2022-10-17T02:39:35.926Z,48.15
2022-10-17T02:42:09.059Z,48.83
2022-10-17T02:44:44.868Z,47.42
2022-10-17T02:47:39.311Z,46.38
2022-10-17T02:50:08.088Z,44.67
2022-10-17T02:53:04.743Z,45.75
2022-10-17T02:55:39.201Z,44.70
2022-10-17T02:58:24.158Z,48.45
2022-10-17T03:00:53.439Z,45.40
2022-10-17T03:03:27.641Z,48.53
2022-10-17T03:05:56.278Z,47.65
2022-10-17T03:08:29.076Z,46.55
2022-10-17T03:10:57.935Z,46.75
2022-10-17T03:13:29.323Z,46.97
2022-10-17T03:15:58.160Z,46.75
2022-10-17T03:18:26.461Z,49.28
2022-10-17T03:20:59.378Z,49.35
2022-10-17T03:23:27.622Z,45.97
2022-10-17T03:25:56.391Z,46.90
2022-10-17T03:28:24.707Z,46.72
2022-10-17T03:30:53.133Z,45.95
2022-10-17T03:33:21.330Z,46.63
2022-10-17T03:38:23.678Z,46.13
2022-10-17T03:40:58.191Z,48.15
2022-10-17T03:43:26.449Z,48.95
2022-10-17T03:45:54.660Z,48.08
2022-10-17T03:48:22.862Z,46.83
2022-10-17T03:50:51.636Z,46.08
2022-10-17T03:53:20.168Z,46.25
2022-10-17T03:55:48.768Z,49.45
2022-10-17T03:58:20.250Z,47.58
2022-10-17T04:00:49.191Z,47.58
2022-10-17T04:03:17.511Z,48.92
2022-10-17T04:05:46.132Z,47.70
2022-10-17T04:08:14.325Z,47.55
2022-10-17T04:11:07.183Z,44.47
2022-10-17T04:13:36.103Z,44.40
2022-10-17T04:16:13.341Z,43.72
2022-10-17T04:18:56.740Z,46.55
2022-10-17T04:21:28.686Z,46.85
2022-10-17T04:24:01.205Z,49.85
2022-10-17T04:27:01.623Z,48.90
2022-10-17T04:29:33.396Z,48.10
2022-10-17T04:32:28.003Z,46.58
2022-10-17T04:35:16.731Z,49.08
2022-10-17T04:37:49.383Z,48.13
2022-10-17T04:40:19.829Z,49.22
2022-10-17T04:42:48.491Z,46.33
2022-10-17T04:45:21.189Z,47.10
2022-10-17T04:47:52.953Z,46.38
2022-10-17T04:50:21.204Z,43.38
2022-10-17T04:53:09.376Z,47.03
2022-10-17T04:55:39.005Z,44.83
2022-10-17T04:58:10.184Z,45.17
2022-10-17T05:00:39.311Z,47.30
2022-10-17T05:03:20.539Z,45.67
2022-10-17T05:05:48.743Z,49.05
2022-10-17T05:08:17.931Z,47.90
2022-10-17T05:10:46.444Z,46.20
2022-10-17T05:13:15.337Z,45.58
2022-10-17T05:15:43.679Z,47.22
2022-10-17T05:18:13.467Z,46.28
2022-10-17T05:20:45.089Z,42.78
2022-10-17T05:23:16.334Z,44.78
2022-10-17T05:25:45.714Z,45.05
2022-10-17T05:28:13.865Z,46.85
2022-10-17T05:30:45.248Z,45.35
2022-10-17T05:33:13.573Z,46.75
2022-10-17T05:35:42.102Z,47.38
2022-10-17T05:38:10.475Z,45.58
2022-10-17T05:40:40.997Z,44.88
2022-10-17T05:43:09.575Z,48.88
2022-10-17T05:45:38.571Z,48.10
2022-10-17T05:48:10.275Z,47.60
2022-10-17T05:50:38.550Z,49.53
2022-10-17T05:53:12.757Z,48.35
2022-10-17T05:55:46.236Z,47.38
2022-10-17T05:58:21.992Z,48.58
2022-10-17T06:01:13.503Z,47.00
2022-10-17T06:03:41.738Z,45.50
2022-10-17T06:06:14.274Z,46.58
2022-10-17T06:08:45.826Z,47.75
2022-10-17T06:11:17.776Z,47.95
2022-10-17T06:13:47.085Z,46.83
2022-10-17T06:16:24.302Z,47.72
2022-10-17T06:18:52.595Z,49.40
2022-10-17T06:21:24.576Z,47.80
2022-10-17T06:23:54.875Z,49.40
2022-10-17T06:26:33.562Z,49.85
2022-10-17T06:29:01.903Z,49.30
2022-10-17T06:31:36.093Z,46.45
2022-10-17T06:34:05.160Z,46.67
2022-10-17T06:36:33.437Z,47.55
2022-10-17T06:39:02.488Z,48.92
2022-10-17T06:41:44.948Z,47.80
2022-10-17T06:44:13.368Z,48.30
2022-10-17T06:47:20.204Z,48.20
2022-10-17T06:49:49.925Z,53.60
2022-10-17T06:52:30.519Z,51.90
2022-10-17T06:55:22.636Z,52.33
2022-10-17T06:58:17.007Z,51.75
2022-10-17T07:01:12.161Z,60.20
2022-10-17T07:03:43.623Z,69.13
2022-10-17T07:06:13.369Z,65.45
2022-10-17T07:08:45.028Z,69.20
2022-10-17T07:11:21.755Z,70.57
2022-10-17T07:13:52.744Z,70.07
2022-10-17T07:16:23.016Z,71.25
2022-10-17T07:18:59.228Z,65.93
2022-10-17T07:21:28.455Z,67.93
2022-10-17T07:23:57.015Z,66.65
2022-10-17T07:26:25.504Z,65.22
2022-10-17T07:28:55.421Z,67.72
2022-10-17T07:31:33.264Z,66.25
2022-10-17T07:34:20.493Z,64.75
2022-10-17T07:36:48.721Z,66.50
2022-10-17T07:39:17.294Z,65.78
2022-10-17T07:41:48.983Z,66.05
2022-10-17T07:44:17.915Z,68.78
2022-10-17T07:46:50.528Z,66.13
2022-10-17T07:49:19.752Z,66.97
2022-10-17T07:51:49.878Z,64.97
2022-10-17T07:54:18.476Z,62.28
2022-10-17T07:56:50.534Z,63.33
2022-10-17T07:59:19.842Z,61.30
2022-10-17T08:01:48.223Z,60.78
2022-10-17T08:04:17.117Z,62.53
2022-10-17T08:06:45.367Z,57.72
2022-10-17T08:09:13.565Z,59.80
2022-10-17T08:11:44.083Z,59.17
2022-10-17T08:14:15.013Z,58.15
2022-10-17T08:16:43.797Z,61.00
2022-10-17T08:19:13.084Z,58.75
2022-10-17T08:21:41.437Z,60.22
2022-10-17T08:24:09.620Z,55.28
2022-10-17T08:26:42.334Z,54.95
2022-10-17T08:29:16.460Z,52.67
2022-10-17T08:31:47.732Z,53.22
2022-10-17T08:34:17.332Z,50.37
2022-10-17T08:36:45.629Z,51.67
2022-10-17T08:39:13.807Z,52.60
2022-10-17T08:41:48.030Z,52.35
2022-10-17T08:44:33.404Z,51.35
2022-10-17T08:47:06.070Z,54.08
2022-10-17T08:49:51.531Z,54.37
2022-10-17T08:52:57.562Z,53.83
2022-10-17T08:55:37.828Z,54.30
2022-10-17T08:58:19.221Z,53.90
2022-10-17T09:01:00.441Z,60.13
2022-10-17T09:03:36.929Z,58.78
2022-10-17T09:06:10.639Z,56.10
2022-10-17T09:08:47.705Z,57.03
2022-10-17T09:11:35.349Z,56.45
2022-10-17T09:14:43.147Z,57.45
2022-10-17T09:17:29.429Z,54.70
2022-10-17T09:20:06.166Z,55.88
2022-10-17T09:22:46.228Z,55.63
2022-10-17T09:25:18.849Z,53.72
2022-10-17T09:27:48.943Z,59.80
2022-10-17T09:30:43.583Z,55.78
2022-10-17T09:33:23.239Z,55.35
2022-10-17T09:36:02.871Z,57.72
2022-10-17T09:38:45.251Z,54.50
2022-10-17T09:41:44.929Z,54.78
2022-10-17T09:44:23.510Z,53.25
2022-10-17T09:47:18.511Z,55.25
2022-10-17T09:49:48.735Z,54.30
2022-10-17T09:52:40.230Z,56.28
2022-10-17T09:55:38.918Z,54.17
2022-10-17T09:58:08.288Z,55.40
2022-10-17T10:00:40.025Z,54.40
2022-10-17T10:03:20.402Z,54.63
2022-10-17T10:06:07.472Z,54.35
2022-10-17T10:08:52.439Z,55.72
2022-10-17T10:11:26.375Z,54.63
2022-10-17T10:13:54.538Z,53.70
2022-10-17T10:16:33.285Z,55.20
2022-10-17T10:19:04.700Z,51.53
2022-10-17T10:21:54.210Z,49.25
2022-10-17T10:24:26.931Z,48.63
2022-10-17T10:27:00.507Z,51.97
2022-10-17T10:29:34.168Z,50.60
2022-10-17T10:32:26.485Z,52.00
2022-10-17T10:34:58.783Z,52.10
2022-10-17T10:37:43.474Z,53.58
2022-10-17T10:40:23.688Z,56.60
2022-10-17T10:42:54.812Z,54.22
2022-10-17T10:45:48.090Z,53.45
2022-10-17T10:48:23.631Z,53.43
2022-10-17T10:51:16.458Z,52.50
2022-10-17T10:54:05.502Z,54.20
2022-10-17T10:56:37.170Z,55.05
2022-10-17T10:59:11.222Z,54.05
2022-10-17T11:01:54.170Z,53.00
2022-10-17T11:04:35.323Z,52.15
2022-10-17T11:07:22.623Z,50.75
2022-10-17T11:10:30.859Z,50.45
2022-10-17T11:13:11.066Z,46.13
2022-10-17T11:15:51.478Z,49.10
2022-10-17T11:18:31.852Z,50.50
2022-10-17T11:21:04.308Z,49.00
2022-10-17T11:24:09.081Z,46.97
2022-10-17T11:26:46.630Z,47.40
2022-10-17T11:29:14.899Z,48.88
2022-10-17T11:31:48.999Z,47.25
2022-10-17T11:34:36.134Z,44.38
2022-10-17T11:37:45.971Z,47.95
2022-10-17T11:40:38.443Z,48.35
2022-10-17T11:43:18.740Z,48.08
2022-10-17T11:45:53.083Z,46.33
2022-10-17T11:49:06.564Z,50.00
2022-10-17T11:52:00.442Z,49.50
2022-10-17T11:54:45.791Z,46.80
2022-10-17T11:57:41.214Z,48.58
2022-10-17T12:00:27.198Z,53.92
2022-10-17T12:03:24.798Z,48.17
2022-10-17T12:05:59.594Z,46.38
2022-10-17T12:08:42.210Z,48.90
2022-10-17T12:11:28.514Z,51.53
2022-10-17T12:13:57.243Z,49.30
2022-10-17T12:16:25.464Z,51.80
2022-10-17T12:19:23.671Z,51.80
2022-10-17T12:22:13.514Z,50.50
2022-10-17T12:24:45.160Z,50.08
2022-10-17T12:27:45.909Z,50.30
2022-10-17T12:30:24.791Z,49.33
2022-10-17T12:33:07.987Z,49.35
2022-10-17T12:35:38.692Z,49.25
2022-10-17T12:38:20.453Z,52.72
2022-10-17T12:40:50.815Z,53.03
2022-10-17T12:43:27.746Z,51.25
2022-10-17T12:46:00.773Z,52.33
2022-10-17T12:48:34.768Z,51.65
2022-10-17T12:54:15.170Z,48.85
2022-10-17T12:56:49.491Z,48.92
2022-10-17T12:59:27.878Z,51.00
2022-10-17T13:02:03.448Z,52.90
2022-10-17T13:04:36.326Z,51.25
2022-10-17T13:07:04.869Z,49.47
2022-10-17T13:09:35.339Z,48.30
2022-10-17T13:12:10.840Z,50.45
2022-10-17T13:14:42.767Z,48.72
2022-10-17T13:17:27.631Z,48.25
2022-10-17T13:19:56.663Z,48.05
2022-10-17T13:22:28.676Z,47.38
2022-10-17T13:25:15.800Z,48.35
2022-10-17T13:27:44.473Z,47.42
2022-10-17T13:30:28.007Z,47.97
2022-10-17T13:32:59.706Z,49.63
2022-10-17T13:38:29.629Z,48.10
2022-10-17T13:41:10.801Z,43.78
2022-10-17T13:43:46.616Z,42.45
2022-10-17T13:46:37.956Z,45.95
2022-10-17T13:49:24.520Z,44.80
2022-10-17T13:51:56.194Z,45.50
2022-10-17T13:54:42.934Z,46.45
2022-10-17T13:57:29.128Z,43.92
2022-10-17T14:00:21.989Z,44.70
2022-10-17T14:02:50.970Z,46.95
2022-10-17T14:05:21.519Z,47.10
2022-10-17T14:08:13.744Z,43.10
2022-10-17T14:13:36.227Z,42.17
2022-10-17T14:16:05.128Z,46.20
2022-10-17T14:18:37.908Z,42.83
2022-10-17T14:24:16.055Z,40.75
2022-10-17T14:26:59.575Z,42.60
2022-10-17T14:29:33.155Z,42.90
2022-10-17T14:32:06.176Z,42.47
2022-10-17T14:34:38.005Z,41.10
2022-10-17T14:37:41.342Z,40.10
2022-10-17T14:40:17.878Z,43.22
2022-10-17T14:42:47.451Z,41.80
2022-10-17T14:45:32.214Z,41.55
2022-10-17T14:48:17.660Z,43.53
2022-10-17T14:51:09.072Z,40.08
2022-10-17T14:53:38.771Z,38.90
2022-10-17T14:56:24.114Z,39.63
2022-10-17T14:58:53.050Z,36.92
2022-10-17T15:01:21.288Z,37.28
2022-10-17T15:03:49.670Z,40.08
2022-10-17T15:06:48.491Z,36.63
2022-10-17T15:09:16.684Z,34.40
2022-10-17T15:11:44.916Z,35.17
2022-10-17T15:14:13.054Z,34.97
2022-10-17T15:16:41.262Z,35.88
2022-10-17T15:19:12.385Z,35.33
2022-10-17T15:21:44.788Z,33.72
2022-10-17T15:24:15.893Z,34.80
2022-10-17T15:26:44.162Z,32.72
2022-10-17T15:29:16.227Z,31.83
2022-10-17T15:31:44.479Z,32.25
2022-10-17T15:34:12.711Z,30.70
2022-10-17T15:36:42.559Z,29.85
2022-10-17T15:39:10.929Z,30.38
2022-10-17T15:41:39.114Z,31.13
2022-10-17T15:44:07.540Z,29.20
2022-10-17T15:46:36.321Z,28.38
2022-10-17T15:49:08.107Z,30.35
2022-10-17T15:51:39.048Z,27.70
2022-10-17T15:54:07.400Z,29.75
2022-10-17T15:56:43.074Z,29.15
2022-10-17T15:59:21.742Z,29.65
2022-10-17T16:01:50.042Z,29.15
2022-10-17T16:04:18.858Z,28.80
2022-10-17T16:06:47.076Z,28.75
2022-10-17T16:09:15.283Z,31.73
2022-10-17T16:11:45.090Z,30.20
2022-10-17T16:14:18.289Z,30.42
2022-10-17T16:16:46.429Z,29.90
2022-10-17T16:19:14.761Z,30.13
2022-10-17T16:21:43.066Z,31.85
2022-10-17T16:24:13.989Z,31.48
2022-10-17T16:26:45.086Z,29.95
2022-10-17T16:29:13.398Z,30.50
2022-10-17T16:31:45.161Z,28.25
2022-10-17T16:34:14.884Z,30.52
2022-10-17T16:36:43.440Z,30.25
2022-10-17T16:39:11.585Z,29.13
2022-10-17T16:41:40.142Z,30.45
2022-10-17T16:44:15.184Z,29.73
2022-10-17T16:46:43.383Z,31.17
2022-10-17T16:49:12.634Z,31.70
2022-10-17T16:51:40.797Z,31.02
2022-10-17T16:54:09.807Z,34.97
2022-10-17T16:56:38.011Z,34.25
2022-10-17T16:59:06.163Z,36.13
2022-10-17T17:01:34.396Z,37.03
2022-10-17T17:04:04.577Z,34.83
2022-10-17T17:06:32.905Z,34.72
2022-10-17T17:09:01.090Z,36.00
2022-10-17T17:11:29.373Z,36.45
2022-10-17T17:13:59.403Z,37.03
2022-10-17T17:16:29.567Z,37.90
2022-10-17T17:19:00.547Z,36.75
2022-10-17T17:21:29.155Z,37.08
2022-10-17T17:24:00.161Z,37.22
2022-10-17T17:26:32.249Z,37.60
2022-10-17T17:29:01.482Z,37.33
2022-10-17T17:31:34.966Z,39.58
2022-10-17T17:34:03.964Z,38.03
2022-10-17T17:36:37.169Z,39.08
2022-10-17T17:39:08.067Z,35.35
2022-10-17T17:41:39.525Z,39.20
2022-10-17T17:44:12.403Z,37.78
2022-10-17T17:46:51.488Z,38.35
2022-10-17T17:49:19.837Z,37.97
2022-10-17T17:51:48.516Z,38.38
2022-10-17T17:54:17.519Z,39.15
2022-10-17T17:56:45.690Z,40.83
2022-10-17T17:59:16.816Z,37.60
2022-10-17T18:01:47.761Z,38.97
2022-10-17T18:04:18.876Z,39.35
2022-10-17T18:06:47.287Z,41.40
2022-10-17T18:09:15.445Z,38.53
2022-10-17T18:11:43.612Z,39.08
2022-10-17T18:14:13.794Z,41.97
2022-10-17T18:16:42.649Z,37.63
2022-10-17T18:19:11.781Z,38.60
2022-10-17T18:21:40.036Z,37.38
2022-10-17T18:24:08.374Z,40.92
2022-10-17T18:26:37.019Z,38.40
2022-10-17T18:29:05.486Z,37.83
2022-10-17T18:31:36.045Z,39.58
2022-10-17T18:34:05.889Z,39.22
2022-10-17T18:36:35.152Z,38.38
2022-10-17T18:39:04.538Z,39.80
2022-10-17T18:41:33.397Z,40.33
2022-10-17T18:44:03.089Z,38.40
2022-10-17T18:46:36.323Z,40.70
2022-10-17T18:49:04.568Z,37.42
2022-10-17T18:51:32.776Z,36.88
2022-10-17T18:54:02.348Z,41.38
2022-10-17T18:56:31.332Z,40.50
2022-10-17T18:59:01.268Z,41.60
2022-10-17T19:01:29.737Z,39.67
2022-10-17T19:03:59.413Z,39.80
2022-10-17T19:06:32.109Z,40.25
2022-10-17T19:09:02.562Z,39.28
2022-10-17T19:11:32.204Z,39.42
2022-10-17T19:14:02.190Z,40.63
2022-10-17T19:16:36.173Z,42.88
2022-10-17T19:19:08.391Z,40.83
2022-10-17T19:21:36.727Z,41.70
2022-10-17T19:24:07.835Z,42.05
2022-10-17T19:26:36.927Z,42.25
2022-10-17T19:29:06.285Z,41.45
2022-10-17T19:31:35.817Z,40.72
2022-10-17T19:34:04.057Z,42.88
2022-10-17T19:36:34.075Z,40.10
2022-10-17T19:39:10.487Z,43.25
2022-10-17T19:41:42.909Z,41.55
2022-10-17T19:44:11.549Z,42.58
2022-10-17T19:46:40.201Z,39.05
2022-10-17T19:49:08.550Z,39.72
2022-10-17T19:51:36.803Z,38.13
2022-10-17T19:54:05.048Z,39.63
2022-10-17T19:56:38.319Z,41.35
2022-10-17T19:59:07.156Z,38.78
2022-10-17T20:01:40.736Z,41.92
2022-10-17T20:04:10.958Z,41.17
2022-10-17T20:06:40.074Z,42.38
2022-10-17T20:09:13.881Z,41.60
2022-10-17T20:11:45.049Z,41.15
2022-10-17T20:14:13.235Z,39.72
2022-10-17T20:16:41.414Z,44.85
2022-10-17T20:19:12.268Z,40.88
2022-10-17T20:21:40.622Z,39.08
2022-10-17T20:24:12.491Z,40.40
2022-10-17T20:26:43.288Z,41.13
2022-10-17T20:29:17.789Z,41.25
2022-10-17T20:31:50.160Z,40.75
2022-10-17T20:34:19.735Z,39.55
2022-10-17T20:36:48.694Z,40.08
2022-10-17T20:39:20.027Z,37.78
2022-10-17T20:41:51.315Z,37.72
2022-10-17T20:44:19.811Z,37.33
2022-10-17T20:47:01.321Z,36.00
2022-10-17T20:49:31.682Z,33.72
2022-10-17T20:52:00.880Z,35.95
2022-10-17T20:54:29.127Z,35.67
2022-10-17T20:56:59.850Z,38.38
2022-10-17T20:59:30.924Z,39.53
2022-10-17T21:01:59.133Z,38.88
2022-10-17T21:07:17.144Z,40.42
2022-10-17T21:09:46.388Z,42.88
2022-10-17T21:12:21.791Z,44.88
2022-10-17T21:14:59.955Z,43.63
2022-10-17T21:17:28.377Z,43.60
2022-10-17T21:19:56.558Z,41.13
2022-10-17T21:22:24.803Z,42.58
2022-10-17T21:24:53.097Z,42.05
2022-10-17T21:27:21.306Z,42.35
2022-10-17T21:29:49.599Z,39.75
2022-10-17T21:32:31.916Z,39.28
2022-10-17T21:35:06.403Z,38.13
2022-10-17T21:37:34.604Z,36.42
2022-10-17T21:40:02.843Z,40.95
2022-10-17T21:42:31.262Z,35.90
2022-10-17T21:44:59.627Z,37.45
2022-10-17T21:47:29.653Z,34.13
2022-10-17T21:49:57.806Z,35.40
2022-10-17T21:52:25.989Z,32.28
2022-10-17T21:54:54.175Z,32.28
2022-10-17T21:57:22.360Z,29.98
2022-10-17T21:59:50.508Z,31.25
2022-10-17T22:02:19.363Z,30.33
2022-10-17T22:04:47.628Z,28.83
2022-10-17T22:07:15.796Z,26.67
2022-10-17T22:09:44.022Z,28.48
2022-10-17T22:12:12.144Z,28.58
2022-10-17T22:14:40.384Z,27.75
2022-10-17T22:17:08.534Z,26.98
2022-10-17T22:19:36.699Z,28.98
2022-10-17T22:22:04.894Z,31.75
2022-10-17T22:24:33.036Z,33.97
2022-10-17T22:27:01.444Z,35.38
2022-10-17T22:29:29.656Z,32.22
2022-10-17T22:32:00.528Z,32.45
2022-10-17T22:34:28.828Z,35.45
2022-10-17T22:36:56.986Z,35.67
2022-10-17T22:39:25.065Z,35.50
2022-10-17T22:41:53.279Z,35.38
2022-10-17T22:44:21.456Z,36.45
2022-10-17T22:46:49.740Z,35.13
2022-10-17T22:49:18.005Z,33.25
2022-10-17T22:51:46.126Z,34.90
2022-10-17T22:54:14.300Z,36.28
2022-10-17T22:56:45.150Z,35.05
2022-10-17T22:59:13.320Z,35.58
2022-10-17T23:01:41.562Z,36.08
2022-10-17T23:04:09.795Z,36.85
2022-10-17T23:06:37.930Z,38.15
2022-10-17T23:09:06.133Z,38.45
2022-10-17T23:11:34.286Z,40.08
2022-10-17T23:14:02.411Z,37.03
2022-10-17T23:16:30.515Z,38.65
2022-10-17T23:18:58.905Z,39.85
2022-10-17T23:21:27.015Z,37.47
2022-10-17T23:23:55.283Z,37.03
2022-10-17T23:26:23.410Z,35.92
2022-10-17T23:28:54.874Z,34.03
2022-10-17T23:31:23.184Z,34.72
2022-10-17T23:33:51.541Z,30.58
2022-10-17T23:36:20.989Z,32.15
2022-10-17T23:38:49.750Z,29.85
2022-10-17T23:41:19.076Z,32.58
2022-10-17T23:43:47.203Z,30.15
2022-10-17T23:46:15.377Z,28.73
2022-10-17T23:48:43.551Z,26.52
2022-10-17T23:51:11.895Z,27.80
2022-10-17T23:53:41.238Z,28.33
2022-10-17T23:56:10.477Z,28.33
2022-10-17T23:58:39.675Z,25.25
